This is the latest recevied weather packets stored in our database for station/object EA5JMY-10. If no packets are shown the sender has not sent any weather packets the latest 1 day(s).
| Time | Temp. | Humidity | Pressure | Rain* | Wind** | Luminosity | Snow |
|---|---|---|---|---|---|---|---|
| 1778048115 | 20.56° C | 55% | 1014.4 hPa | - | - | - | - |
| 1778047215 | 20.56° C | 57% | 1014.3 hPa | - | - | - | - |
| 1778046315 | 20° C | 58% | 1014.2 hPa | - | - | - | - |
| 1778045415 | 18.89° C | 64% | 1014.1 hPa | - | - | - | - |
| 1778044515 | 18.33° C | 66% | 1014 hPa | - | - | - | - |
| 1778043615 | 17.78° C | 68% | 1013.9 hPa | - | - | - | - |
| 1778042715 | 17.78° C | 69% | 1013.8 hPa | - | - | - | - |
| 1778041814 | 17.78° C | 69% | 1013.8 hPa | - | - | - | - |
| 1778040914 | 17.78° C | 69% | 1013.7 hPa | - | - | - | - |
| 1778040014 | 18.33° C | 69% | 1013.6 hPa | - | - | - | - |
| 1778039114 | 18.89° C | 68% | 1013.6 hPa | - | - | - | - |
| 1778038214 | 18.89° C | 67% | 1013.7 hPa | - | - | - | - |
| 1778037314 | 18.89° C | 68% | 1013.6 hPa | - | - | - | - |
| 1778036414 | 18.89° C | 68% | 1013.6 hPa | - | - | - | - |
| 1778035514 | 18.89° C | 66% | 1013.6 hPa | - | - | - | - |
| 1778034613 | 18.89° C | 67% | 1013.6 hPa | - | - | - | - |
| 1778033713 | 19.44° C | 65% | 1013.5 hPa | - | - | - | - |
| 1778032813 | 18.89° C | 65% | 1013.6 hPa | - | - | - | - |
| 1778031913 | 19.44° C | 65% | 1013.7 hPa | - | - | - | - |
| 1778031013 | 19.44° C | 65% | 1013.7 hPa | - | - | - | - |
| 1778030113 | 19.44° C | 65% | 1013.8 hPa | - | - | - | - |
| 1778028312 | 19.44° C | 64% | 1013.9 hPa | - | - | - | - |
| 1778027412 | 19.44° C | 66% | 1014.1 hPa | - | - | - | - |
| 1778026512 | 19.44° C | 67% | 1014.2 hPa | - | - | - | - |
| 1778025612 | 19.44° C | 67% | 1014.3 hPa | - | - | - | - |
* Rain since midnight (hover to see other rain measurements)
** Current wind speed in m/s (hover to see current wind gust speed)